Time;durP1;ratioP1;P1;durP2;ratioP2;P2;SDS_P1;SDS_P2;PMS_P1;PMS_P2;Temp;Humidity;BMP_temperature;BMP_pressure;BME280_temperature;BME280_humidity;BME280_pressure;Samples;Min_cycle;Max_cycle;Signal;HPM_P1;HPM_P2
2022/05/01 00:01:06;;;;;;;17.47;15.20;;;;;;;12.39;69.92;100958.41;5008262;28;20409;-71
2022/05/01 00:03:31;;;;;;;20.23;16.73;;;;;;;12.37;69.96;100957.00;5011350;28;20413;-71
2022/05/01 00:06:05;;;;;;;18.23;16.38;;;;;;;12.28;70.03;100945.69;5010608;28;20420;-71
2022/05/01 00:08:31;;;;;;;18.17;16.27;;;;;;;12.22;70.43;100962.97;5011722;28;20399;-72
2022/05/01 00:10:57;;;;;;;24.08;17.20;;;;;;;12.17;70.32;100952.00;5011657;28;20483;-71
2022/05/01 00:13:23;;;;;;;18.07;16.13;;;;;;;12.13;70.80;100947.28;5010703;28;20919;-71
2022/05/01 00:15:49;;;;;;;19.00;15.80;;;;;;;12.17;70.94;100948.47;5011656;28;20412;-71
2022/05/01 00:18:15;;;;;;;18.90;16.42;;;;;;;12.17;70.86;100946.59;5010059;28;20491;-72
2022/05/01 00:20:40;;;;;;;17.33;15.60;;;;;;;12.15;70.96;100953.34;5010630;28;20499;-71
2022/05/01 00:23:05;;;;;;;18.83;15.88;;;;;;;12.16;71.05;100953.06;4993902;28;20404;-71
2022/05/01 00:25:32;;;;;;;17.60;15.77;;;;;;;12.17;70.70;100952.00;5011567;28;20408;-71
2022/05/01 00:27:57;;;;;;;17.02;15.20;;;;;;;12.19;70.77;100954.47;5010456;28;20408;-71
2022/05/01 00:30:22;;;;;;;17.23;15.37;;;;;;;12.17;70.72;100951.19;5011456;28;20552;-71
2022/05/01 00:38:16;;;;;;;20.15;14.93;;;;;;;12.15;71.02;100945.19;5009671;28;20443;-71
2022/05/01 00:40:42;;;;;;;16.42;14.73;;;;;;;12.15;70.77;100937.81;5011068;28;20432;-71
2022/05/01 00:43:07;;;;;;;16.70;14.70;;;;;;;12.20;71.07;100942.53;5010302;28;20439;-71
2022/05/01 00:45:33;;;;;;;17.08;15.30;;;;;;;12.23;71.06;100934.72;5013107;28;20451;-71
2022/05/01 00:47:58;;;;;;;19.08;16.55;;;;;;;12.23;70.72;100934.72;5013779;28;20420;-71
2022/05/01 00:50:24;;;;;;;19.33;15.50;;;;;;;12.26;70.79;100923.38;5015034;28;20455;-72
2022/05/01 00:52:51;;;;;;;17.58;15.23;;;;;;;12.29;70.64;100932.91;5013333;28;20404;-72
2022/05/01 00:55:16;;;;;;;21.27;16.10;;;;;;;12.34;70.61;100927.59;5014772;28;20389;-71
2022/05/01 00:57:44;;;;;;;20.40;16.83;;;;;;;12.39;70.60;100935.81;5014587;28;20439;-71
2022/05/01 01:00:10;;;;;;;18.65;15.98;;;;;;;12.30;70.62;100935.41;5013499;28;20888;-71
2022/05/01 01:02:37;;;;;;;16.65;14.55;;;;;;;12.24;71.10;100930.94;5013565;28;20467;-72
2022/05/01 01:05:03;;;;;;;18.05;15.95;;;;;;;12.23;71.06;100923.03;5014260;28;20459;-72
2022/05/01 01:07:28;;;;;;;18.02;16.13;;;;;;;12.17;71.38;100930.28;4996358;28;20401;-71
2022/05/01 01:09:53;;;;;;;17.27;15.40;;;;;;;12.16;71.43;100931.34;5013908;28;20888;-71
2022/05/01 01:13:08;;;;;;;22.93;16.17;;;;;;;12.17;71.42;100933.00;5012429;28;20479;-72
2022/05/01 01:15:10;;;;;;;21.70;15.25;;;;;;;12.18;71.32;100922.97;4988700;28;20430;-72
2022/05/01 01:17:42;;;;;;;18.10;16.10;;;;;;;12.15;71.61;100923.44;5014006;28;20568;-71
2022/05/01 01:20:17;;;;;;;17.33;15.45;;;;;;;12.10;71.59;100909.75;5013308;28;20408;-72
2022/05/01 01:22:44;;;;;;;18.88;15.73;;;;;;;12.09;71.69;100910.81;5013984;28;20409;-71
2022/05/01 01:25:11;;;;;;;17.50;15.50;;;;;;;12.05;71.98;100912.38;5011188;28;20404;-71
2022/05/01 01:27:46;;;;;;;18.20;15.45;;;;;;;12.05;71.75;100915.94;5029070;28;20433;-72
2022/05/01 01:32:55;;;;;;;16.80;15.02;;;;;;;12.04;71.84;100914.28;5013607;28;20502;-71
2022/05/01 01:35:26;;;;;;;16.93;14.37;;;;;;;12.05;71.59;100915.09;5004902;28;20424;-72
2022/05/01 01:37:54;;;;;;;18.58;14.90;;;;;;;12.01;71.06;100912.06;5013427;28;20895;-71
2022/05/01 01:40:27;;;;;;;19.75;15.10;;;;;;;12.00;70.79;100909.56;5012820;28;20497;-72
2022/05/01 01:42:54;;;;;;;19.63;15.05;;;;;;;11.96;70.51;100904.63;5013575;28;20409;-71
2022/05/01 01:45:20;;;;;;;17.92;15.18;;;;;;;11.93;70.31;100907.81;5012581;28;20463;-72
2022/05/01 01:47:49;;;;;;;21.45;15.50;;;;;;;11.92;70.52;100914.31;5012292;28;20409;-71
2022/05/01 01:50:16;;;;;;;17.08;14.93;;;;;;;11.92;70.33;100914.31;5010413;28;20424;-71
2022/05/01 01:52:46;;;;;;;18.17;14.60;;;;;;;11.91;70.44;100909.97;5013324;28;20397;-72
2022/05/01 01:55:15;;;;;;;16.98;14.60;;;;;;;11.96;70.21;100914.66;5011015;28;20459;-71
2022/05/01 01:57:40;;;;;;;17.85;14.40;;;;;;;12.00;70.22;100920.44;5012775;28;20396;-71
2022/05/01 02:00:06;;;;;;;18.77;14.47;;;;;;;11.98;70.09;100907.09;5008959;28;20966;-71
2022/05/01 02:02:32;;;;;;;17.70;14.63;;;;;;;11.88;70.77;100917.78;5011264;28;21046;-71
2022/05/01 02:04:57;;;;;;;17.73;14.27;;;;;;;11.80;71.17;100910.81;5013116;28;20393;-71
2022/05/01 02:07:22;;;;;;;17.07;15.27;;;;;;;11.78;71.31;100912.16;5010509;28;20498;-71
2022/05/01 02:09:48;;;;;;;20.63;14.50;;;;;;;11.79;71.18;100911.06;5013053;28;20409;-71
2022/05/01 02:12:13;;;;;;;19.80;15.43;;;;;;;11.74;71.68;100914.50;5013246;28;20401;-71
2022/05/01 02:14:38;;;;;;;16.57;14.83;;;;;;;11.78;71.77;100899.41;5011996;28;20404;-71
2022/05/01 02:17:03;;;;;;;19.43;13.90;;;;;;;11.81;71.57;100898.06;5011803;28;20764;-71
2022/05/01 02:19:29;;;;;;;17.60;15.10;;;;;;;11.78;71.93;100907.53;5013045;28;20958;-71
2022/05/01 02:21:55;;;;;;;16.52;14.52;;;;;;;11.72;72.14;100900.34;5012578;28;20416;-71
2022/05/01 02:24:20;;;;;;;19.63;15.02;;;;;;;11.74;72.22;100894.69;4995314;28;20454;-71
2022/05/01 02:26:47;;;;;;;16.88;14.55;;;;;;;11.76;72.02;100892.53;5003725;28;20396;-71
2022/05/01 02:29:13;;;;;;;19.83;14.98;;;;;;;11.76;71.82;100887.09;4994850;28;20954;-71
2022/05/01 02:31:40;;;;;;;16.03;14.40;;;;;;;11.77;72.01;100880.63;5012744;28;20408;-71
2022/05/01 02:34:06;;;;;;;18.10;13.77;;;;;;;11.81;71.86;100884.50;5012087;28;20555;-71
2022/05/01 02:36:32;;;;;;;15.20;13.60;;;;;;;11.84;71.79;100889.44;5012853;28;20405;-71
2022/05/01 02:38:58;;;;;;;15.15;13.65;;;;;;;11.87;71.42;100884.34;5010628;28;20416;-71
2022/05/01 02:41:23;;;;;;;16.77;14.25;;;;;;;11.89;71.15;100881.38;5011663;28;20420;-71
2022/05/01 02:43:49;;;;;;;16.63;13.97;;;;;;;11.89;71.42;100884.91;5012462;28;20440;-71
2022/05/01 02:46:15;;;;;;;14.77;13.27;;;;;;;11.88;71.44;100888.72;5012047;28;20446;-72
2022/05/01 02:48:41;;;;;;;15.73;13.57;;;;;;;11.86;71.60;100888.13;5012474;28;20412;-71
2022/05/01 02:51:06;;;;;;;79.50;49.63;;;;;;;11.84;71.84;100887.56;5010438;28;20416;-71
2022/05/01 02:53:33;;;;;;;38.55;32.83;;;;;;;11.85;71.75;100886.50;5012211;28;20460;-71
2022/05/01 02:56:00;;;;;;;25.33;20.30;;;;;;;11.83;71.92;100885.06;5012335;28;20397;-71
2022/05/01 02:58:26;;;;;;;17.55;15.73;;;;;;;11.83;72.09;100885.91;5011763;28;20408;-71
2022/05/01 03:00:51;;;;;;;30.25;27.02;;;;;;;11.85;71.85;100886.50;4988736;28;20413;-71
2022/05/01 03:03:17;;;;;;;21.93;15.00;;;;;;;11.89;71.66;100889.53;5011812;28;20949;-72
2022/05/01 03:05:42;;;;;;;85.83;60.33;;;;;;;11.89;71.34;100889.53;5008536;28;20403;-71
2022/05/01 03:08:07;;;;;;;84.73;57.30;;;;;;;11.84;71.74;100879.41;5006928;28;20412;-71
2022/05/01 03:10:32;;;;;;;34.17;26.67;;;;;;;11.84;71.62;100884.84;5011168;28;20455;-71
2022/05/01 03:12:58;;;;;;;24.50;19.37;;;;;;;11.86;71.42;100887.31;5026572;28;20452;-71
2022/05/01 03:15:24;;;;;;;28.05;22.77;;;;;;;11.88;70.95;100883.28;5011326;28;20427;-71
2022/05/01 03:23:17;;;;;;;22.05;16.90;;;;;;;11.81;71.35;100877.19;5012108;28;20395;-71
2022/05/01 03:25:42;;;;;;;18.58;14.20;;;;;;;11.82;71.37;100870.66;5026996;28;20689;-71
2022/05/01 03:28:08;;;;;;;18.87;15.83;;;;;;;11.81;71.66;100865.50;5011631;28;20409;-71
2022/05/01 03:30:34;;;;;;;16.00;14.37;;;;;;;11.80;71.56;100871.97;5011340;28;20416;-72
2022/05/01 03:33:01;;;;;;;18.58;13.95;;;;;;;11.78;71.59;100866.81;4992608;28;20492;-71
2022/05/01 03:35:29;;;;;;;15.55;13.20;;;;;;;11.75;71.63;100869.19;5011647;28;20484;-71
2022/05/01 03:37:54;;;;;;;14.20;12.70;;;;;;;11.77;71.67;100869.75;5011513;28;20500;-71
2022/05/01 03:40:21;;;;;;;14.00;12.63;;;;;;;11.80;71.62;100863.84;5011471;28;20930;-72
2022/05/01 03:42:46;;;;;;;14.80;13.20;;;;;;;11.83;71.76;100863.34;5011744;28;20483;-71
2022/05/01 03:45:12;;;;;;;14.85;13.13;;;;;;;11.86;71.71;100862.84;5011664;28;20487;-72
2022/05/01 03:47:37;;;;;;;14.57;12.80;;;;;;;11.85;71.59;100851.19;5009825;28;20412;-71
2022/05/01 03:50:04;;;;;;;14.03;12.53;;;;;;;11.83;71.79;100855.19;5011384;28;21369;-71
2022/05/01 03:52:29;;;;;;;17.60;13.57;;;;;;;11.83;71.84;100856.03;5011027;28;20401;-72
2022/05/01 03:54:55;;;;;;;15.87;14.10;;;;;;;11.82;71.86;100856.28;5010133;28;20412;-72
2022/05/01 03:57:20;;;;;;;19.57;15.53;;;;;;;11.82;71.91;100853.56;5011553;28;20404;-71
2022/05/01 03:59:46;;;;;;;16.57;13.30;;;;;;;11.81;71.68;100855.47;5006209;28;20408;-71
2022/05/01 04:02:14;;;;;;;16.08;12.95;;;;;;;11.81;71.27;100850.03;5010298;28;20424;-71
2022/05/01 04:04:39;;;;;;;18.05;14.13;;;;;;;11.83;71.23;100850.59;5011315;28;20432;-71
2022/05/01 04:07:05;;;;;;;17.30;13.20;;;;;;;11.81;71.42;100852.75;5011006;28;20440;-71
2022/05/01 04:09:30;;;;;;;16.80;13.63;;;;;;;11.81;71.54;100855.47;5011371;28;20905;-71
2022/05/01 04:11:55;;;;;;;16.23;13.73;;;;;;;11.79;71.82;100857.56;5009774;28;20823;-72
2022/05/01 04:14:20;;;;;;;15.37;13.77;;;;;;;11.79;72.06;100860.28;5011537;28;20420;-72
2022/05/01 04:16:46;;;;;;;14.93;13.37;;;;;;;11.80;71.90;100853.81;5009890;28;20876;-72
2022/05/01 04:19:12;;;;;;;17.40;14.80;;;;;;;11.80;72.34;100856.53;5011919;28;20412;-72
2022/05/01 04:21:38;;;;;;;16.52;14.80;;;;;;;11.79;72.33;100860.28;5009074;28;20425;-72
2022/05/01 04:24:04;;;;;;;16.58;14.82;;;;;;;11.78;72.52;100866.81;4996032;28;20412;-71
2022/05/01 04:26:29;;;;;;;17.35;13.70;;;;;;;11.76;72.63;100868.09;5010696;28;20406;-71
2022/05/01 04:31:39;;;;;;;17.50;13.60;;;;;;;11.78;72.20;100877.66;5014969;28;20408;-71
2022/05/01 04:34:04;;;;;;;15.73;14.10;;;;;;;11.79;72.37;100879.28;4996969;28;20927;-72
2022/05/01 04:36:30;;;;;;;19.63;13.90;;;;;;;11.77;72.39;100878.72;5015023;28;20400;-71
2022/05/01 04:38:55;;;;;;;16.63;13.57;;;;;;;11.70;72.49;100875.31;5007708;28;20410;-71
2022/05/01 04:41:21;;;;;;;16.50;13.97;;;;;;;11.64;72.69;100883.59;5013573;28;20907;-71
2022/05/01 04:43:47;;;;;;;15.70;14.13;;;;;;;11.61;72.91;100882.19;5011829;28;20404;-71
2022/05/01 04:46:12;;;;;;;15.35;13.68;;;;;;;11.59;72.80;100884.28;5012701;28;20407;-72
2022/05/01 04:48:38;;;;;;;15.77;14.10;;;;;;;11.64;72.77;100880.88;4996982;28;20405;-71
2022/05/01 04:51:05;;;;;;;17.50;13.90;;;;;;;11.70;72.70;100880.75;5014786;28;20483;-71
2022/05/01 04:53:30;;;;;;;15.70;13.73;;;;;;;11.73;72.35;100883.00;5014198;28;20412;-71
2022/05/01 04:57:04;;;;;;;17.35;14.05;;;;;;;11.77;72.26;100886.88;5014846;28;20911;-71
2022/05/01 04:58:41;;;;;;;15.50;13.20;;;;;;;11.79;72.08;100881.19;5008928;28;20405;-71
2022/05/01 05:01:06;;;;;;;17.03;13.67;;;;;;;11.74;72.37;100886.53;5014110;28;20435;-71
2022/05/01 05:03:31;;;;;;;17.33;13.33;;;;;;;11.78;71.93;100885.00;5014120;28;20760;-71
2022/05/01 05:05:57;;;;;;;15.67;13.23;;;;;;;11.82;71.78;100886.97;5014523;28;20476;-71
2022/05/01 05:11:06;;;;;;;14.90;13.35;;;;;;;11.81;72.32;100898.06;5013533;28;20396;-71
2022/05/01 05:13:33;;;;;;;14.57;13.10;;;;;;;11.83;72.21;100902.19;5012877;28;20404;-71
2022/05/01 05:15:59;;;;;;;15.02;13.50;;;;;;;11.83;72.32;100896.75;4996375;28;20768;-71
2022/05/01 05:18:24;;;;;;;13.68;12.07;;;;;;;11.84;72.18;100900.31;4996017;28;20401;-71
2022/05/01 05:20:49;;;;;;;16.33;13.57;;;;;;;11.86;72.22;100895.44;5009756;28;20865;-72
2022/05/01 05:23:15;;;;;;;14.27;12.47;;;;;;;11.87;71.62;100900.66;5014276;28;20404;-71
2022/05/01 05:25:40;;;;;;;14.37;12.70;;;;;;;11.89;71.50;100903.94;5013904;28;20397;-71
2022/05/01 05:28:07;;;;;;;16.33;12.13;;;;;;;11.88;71.66;100902.31;5007196;28;20412;-71
2022/05/01 05:30:33;;;;;;;14.10;12.35;;;;;;;11.91;71.26;100907.25;5010470;28;20508;-71
2022/05/01 05:32:58;;;;;;;16.23;12.40;;;;;;;11.96;71.15;100901.06;4989120;28;20985;-72
2022/05/01 05:35:23;;;;;;;12.73;11.10;;;;;;;11.96;70.82;100909.22;5013884;28;20401;-71
2022/05/01 05:37:49;;;;;;;13.23;11.87;;;;;;;11.98;70.65;100907.09;5013321;28;20969;-71
2022/05/01 05:40:14;;;;;;;14.17;11.80;;;;;;;12.03;70.19;100917.22;5013660;28;20464;-71
2022/05/01 05:42:39;;;;;;;14.93;11.63;;;;;;;12.04;69.67;100913.44;5011864;28;20515;-71
2022/05/01 05:45:05;;;;;;;17.27;12.15;;;;;;;12.02;69.61;100916.38;5011190;28;20478;-72
2022/05/01 05:47:30;;;;;;;13.98;11.25;;;;;;;12.05;69.51;100910.50;5013348;28;20432;-72
2022/05/01 05:49:56;;;;;;;13.57;10.97;;;;;;;12.07;69.41;100912.97;5011488;28;20409;-71
2022/05/01 05:52:21;;;;;;;15.60;11.87;;;;;;;12.07;69.69;100916.50;5013103;28;20992;-72
2022/05/01 05:54:46;;;;;;;13.17;11.27;;;;;;;12.09;68.84;100914.34;5011151;28;20417;-72
2022/05/01 05:57:11;;;;;;;14.57;12.10;;;;;;;12.11;68.80;100916.84;5009409;28;20418;-71
2022/05/01 05:59:37;;;;;;;16.15;11.90;;;;;;;12.14;68.81;100917.19;5006241;28;20408;-71
2022/05/01 06:02:03;;;;;;;15.03;12.40;;;;;;;12.14;68.34;100916.34;4997121;28;20424;-72
2022/05/01 06:04:29;;;;;;;13.48;11.30;;;;;;;12.17;68.30;100915.88;5014393;28;20422;-72
2022/05/01 06:06:54;;;;;;;16.70;11.48;;;;;;;12.21;67.94;100917.84;5014258;28;20420;-71
2022/05/01 06:09:20;;;;;;;14.97;11.07;;;;;;;12.27;67.95;100924.19;5012918;28;20883;-71
2022/05/01 06:11:45;;;;;;;13.33;11.93;;;;;;;12.31;67.78;100911.78;5011805;28;20439;-71
2022/05/01 06:14:10;;;;;;;14.30;10.90;;;;;;;12.35;67.28;100913.75;5010375;28;20969;-71
2022/05/01 06:16:38;;;;;;;12.00;10.27;;;;;;;12.40;66.93;100915.72;5007651;28;20397;-72
2022/05/01 06:19:04;;;;;;;12.00;10.75;;;;;;;12.45;67.16;100916.63;5012691;28;20439;-72
2022/05/01 06:21:29;;;;;;;15.20;10.77;;;;;;;12.49;66.77;100923.22;5011572;28;20420;-71
2022/05/01 06:23:55;;;;;;;14.05;10.25;;;;;;;12.54;66.26;100927.94;5008178;28;20417;-72
2022/05/01 06:26:20;;;;;;;15.73;11.23;;;;;;;12.55;65.77;100921.41;5009699;28;20412;-72
2022/05/01 06:28:47;;;;;;;12.75;11.32;;;;;;;12.58;65.29;100928.28;5009545;28;20911;-71
2022/05/01 06:31:13;;;;;;;12.47;10.40;;;;;;;12.57;65.40;100921.19;5011183;28;20435;-72
2022/05/01 06:33:40;;;;;;;12.30;10.93;;;;;;;12.65;65.46;100921.59;5009838;28;20419;-71
2022/05/01 06:36:06;;;;;;;17.33;12.53;;;;;;;12.76;65.37;100920.69;5011332;28;20409;-71
2022/05/01 06:38:31;;;;;;;16.23;13.00;;;;;;;12.81;65.19;100918.03;5012169;28;20515;-72
2022/05/01 06:40:56;;;;;;;15.60;11.93;;;;;;;12.85;64.83;100915.63;5012166;28;20462;-72
2022/05/01 06:43:22;;;;;;;13.48;11.20;;;;;;;12.89;64.79;100916.81;5011666;28;20401;-72
2022/05/01 06:45:48;;;;;;;11.87;10.67;;;;;;;12.85;64.54;100916.47;5012231;28;20409;-72
2022/05/01 06:48:13;;;;;;;13.40;11.90;;;;;;;12.78;64.32;100923.16;5007599;28;20815;-72
2022/05/01 06:50:39;;;;;;;15.05;12.10;;;;;;;12.68;64.36;100912.94;5006837;28;20413;-72
2022/05/01 06:53:05;;;;;;;14.10;11.70;;;;;;;12.58;64.52;100910.03;5008555;28;20524;-71
2022/05/01 06:55:31;;;;;;;14.88;12.98;;;;;;;12.55;64.95;100915.97;5010567;28;20467;-72
2022/05/01 06:57:56;;;;;;;14.90;12.48;;;;;;;12.65;64.90;100913.44;5008141;28;20413;-73
2022/05/01 07:00:22;;;;;;;12.93;11.73;;;;;;;12.76;64.81;100915.25;5008830;28;20412;-72
2022/05/01 07:02:49;;;;;;;13.13;11.70;;;;;;;12.87;64.68;100916.25;5009537;28;20424;-71
2022/05/01 07:05:15;;;;;;;15.57;11.70;;;;;;;12.96;64.35;100926.44;5008398;28;20417;-72
2022/05/01 07:07:41;;;;;;;16.83;10.85;;;;;;;13.07;63.36;100932.88;5009553;28;20421;-72
2022/05/01 07:10:07;;;;;;;16.93;11.40;;;;;;;13.12;63.83;100922.06;5003818;28;20437;-71
2022/05/01 07:12:33;;;;;;;15.85;11.32;;;;;;;13.21;63.13;100926.00;5010204;28;20915;-71
2022/05/01 07:14:58;;;;;;;12.43;11.13;;;;;;;13.26;62.95;100925.28;5009361;28;20409;-72
2022/05/01 07:17:23;;;;;;;14.55;12.90;;;;;;;13.22;62.72;100922.22;5010173;28;20818;-71
2022/05/01 07:19:49;;;;;;;14.10;12.23;;;;;;;13.19;62.56;100925.44;5007025;28;20436;-71
2022/05/01 07:22:16;;;;;;;13.63;12.23;;;;;;;13.17;62.57;100929.50;5007806;28;20451;-71
2022/05/01 07:24:42;;;;;;;16.10;13.60;;;;;;;13.14;62.11;100925.38;5010049;28;20415;-71
2022/05/01 07:27:07;;;;;;;13.45;12.05;;;;;;;13.23;62.59;100920.34;5008475;28;20425;-71
2022/05/01 07:29:32;;;;;;;14.33;12.33;;;;;;;13.34;62.52;100922.09;5007868;28;20525;-71
2022/05/01 07:31:57;;;;;;;14.40;12.87;;;;;;;13.43;62.09;100913.28;5002266;28;20763;-71
2022/05/01 07:34:23;;;;;;;17.50;13.33;;;;;;;13.49;61.76;100925.03;5002941;28;20415;-71
2022/05/01 07:36:48;;;;;;;13.90;12.40;;;;;;;13.52;62.02;100919.09;5006488;28;20455;-70
2022/05/01 07:39:13;;;;;;;15.73;13.73;;;;;;;13.53;62.30;100918.03;5004836;28;20420;-70
2022/05/01 07:41:40;;;;;;;15.80;13.63;;;;;;;13.48;62.08;100909.78;5001096;28;20783;-70
2022/05/01 07:44:05;;;;;;;16.40;12.77;;;;;;;13.52;61.67;100903.56;5004301;28;20443;-70
2022/05/01 07:46:31;;;;;;;19.30;13.20;;;;;;;13.55;61.53;100906.84;5003052;28;20413;-71
2022/05/01 07:48:56;;;;;;;17.95;13.32;;;;;;;13.62;61.61;100910.22;5013451;28;20483;-70
2022/05/01 07:51:21;;;;;;;13.60;12.07;;;;;;;13.66;61.30;100905.91;5004894;28;20421;-70
2022/05/01 07:53:47;;;;;;;14.20;12.40;;;;;;;13.57;60.96;100910.97;5009246;28;20420;-70
2022/05/01 07:56:12;;;;;;;16.00;11.73;;;;;;;13.58;61.55;100904.44;5008577;28;20930;-70
2022/05/01 07:58:37;;;;;;;16.03;12.87;;;;;;;13.66;61.74;100903.19;5009271;28;20459;-70
2022/05/01 08:01:03;;;;;;;15.95;13.25;;;;;;;13.72;62.00;100903.00;5011637;28;20424;-70
2022/05/01 08:06:14;;;;;;;18.17;13.13;;;;;;;13.90;61.37;100899.91;5008087;28;20452;-70
2022/05/01 08:08:40;;;;;;;14.60;13.10;;;;;;;13.95;61.57;100905.44;4992151;28;20409;-70
2022/05/01 08:11:08;;;;;;;15.70;12.68;;;;;;;13.98;61.59;100898.66;5011037;28;20407;-70
2022/05/01 08:13:34;;;;;;;15.55;13.50;;;;;;;14.10;61.54;100896.59;5016728;28;20407;-70
2022/05/01 08:15:59;;;;;;;15.37;13.77;;;;;;;14.12;61.09;100899.06;5011145;28;20454;-70
2022/05/01 08:21:09;;;;;;;17.17;13.95;;;;;;;14.00;61.16;100899.19;5007811;28;20436;-70
2022/05/01 08:23:36;;;;;;;13.70;12.10;;;;;;;14.11;61.06;100897.41;5008596;28;20405;-70
2022/05/01 08:26:03;;;;;;;14.80;13.20;;;;;;;14.26;60.24;100898.38;5003927;28;20487;-70
2022/05/01 08:28:30;;;;;;;17.10;14.13;;;;;;;14.48;60.52;100896.44;5005290;28;20409;-71
2022/05/01 08:30:55;;;;;;;16.05;13.25;;;;;;;14.55;59.17;100891.56;5010393;28;20407;-70
2022/05/01 08:33:21;;;;;;;16.35;14.35;;;;;;;14.61;59.61;100897.09;5008738;28;20445;-70
2022/05/01 08:35:46;;;;;;;19.77;16.13;;;;;;;14.75;59.86;100896.34;5011149;28;20407;-70
2022/05/01 08:38:11;;;;;;;17.67;15.87;;;;;;;14.89;59.34;100894.00;5025033;28;20518;-70
2022/05/01 08:40:37;;;;;;;17.77;15.07;;;;;;;14.89;59.09;100897.56;4993220;28;20416;-71
2022/05/01 08:43:02;;;;;;;17.40;15.17;;;;;;;14.85;58.91;100895.63;5010818;28;20764;-71
2022/05/01 08:45:41;;;;;;;16.40;14.77;;;;;;;14.82;58.70;100902.41;5010905;28;20962;-71
2022/05/01 08:48:12;;;;;;;17.67;14.95;;;;;;;14.90;58.83;100888.31;5005581;28;20419;-71
2022/05/01 08:50:38;;;;;;;18.73;15.88;;;;;;;15.01;58.41;100897.38;5009206;28;21022;-70
2022/05/01 08:53:06;;;;;;;20.27;15.38;;;;;;;15.08;58.48;100896.03;5007849;28;20415;-71
2022/05/01 08:55:32;;;;;;;17.40;14.90;;;;;;;14.94;58.27;100899.50;5010602;28;20483;-70
2022/05/01 08:57:59;;;;;;;16.47;14.73;;;;;;;14.87;57.96;100898.91;5017697;28;20407;-70
2022/05/01 09:00:26;;;;;;;16.93;15.23;;;;;;;14.94;58.40;100900.34;5008290;28;20408;-70
2022/05/01 09:02:52;;;;;;;17.42;15.35;;;;;;;14.90;58.30;100904.66;4991761;28;20420;-70
2022/05/01 09:05:17;;;;;;;18.02;14.55;;;;;;;14.87;59.19;100907.09;5010484;28;20405;-70
2022/05/01 09:07:43;;;;;;;18.17;15.10;;;;;;;14.84;59.23;100899.44;5009025;28;20403;-70
2022/05/01 09:10:09;;;;;;;18.05;15.50;;;;;;;14.76;59.51;100903.47;4988918;28;20424;-70
2022/05/01 09:12:49;;;;;;;16.70;15.00;;;;;;;14.75;59.67;100906.47;4991629;28;20775;-70
2022/05/01 09:15:27;;;;;;;15.88;14.27;;;;;;;14.78;59.88;100900.50;4994625;28;21149;-70
2022/05/01 09:18:04;;;;;;;16.45;14.63;;;;;;;14.87;59.56;100899.75;4980263;28;20512;-70
2022/05/01 09:20:30;;;;;;;16.70;15.02;;;;;;;14.86;59.69;100900.81;4988731;28;20419;-70
2022/05/01 09:22:58;;;;;;;17.80;15.93;;;;;;;14.98;59.45;100898.72;4986993;28;20981;-69
2022/05/01 09:25:26;;;;;;;17.00;15.30;;;;;;;15.22;59.10;100896.41;4992339;28;20559;-69
2022/05/01 09:27:59;;;;;;;17.08;14.48;;;;;;;15.55;58.54;100889.75;4990591;28;20448;-69
2022/05/01 09:30:38;;;;;;;17.00;15.20;;;;;;;15.64;57.86;100887.34;4991262;28;20909;-70
2022/05/01 09:33:04;;;;;;;16.73;14.63;;;;;;;15.63;57.99;100885.69;4989952;28;20407;-69
2022/05/01 09:35:31;;;;;;;16.90;15.18;;;;;;;15.62;57.85;100887.59;4982984;28;20839;-69
2022/05/01 09:38:18;;;;;;;17.70;15.77;;;;;;;15.58;57.92;100892.78;4989996;28;20899;-70
2022/05/01 09:40:49;;;;;;;21.48;17.05;;;;;;;15.51;57.84;100894.13;4992457;28;20952;-69
2022/05/01 09:43:36;;;;;;;17.02;15.27;;;;;;;15.46;57.17;100891.34;4993275;28;20425;-69
2022/05/01 09:46:12;;;;;;;17.10;15.45;;;;;;;15.53;58.34;100895.50;4993925;28;20413;-69
2022/05/01 09:48:38;;;;;;;17.02;15.25;;;;;;;15.72;57.88;100886.81;4985436;28;20405;-70
2022/05/01 09:51:17;;;;;;;15.80;14.30;;;;;;;15.79;57.38;100895.59;4984406;28;20498;-69
2022/05/01 09:53:43;;;;;;;18.90;14.90;;;;;;;15.83;56.99;100893.97;4986443;28;20426;-70
2022/05/01 09:56:09;;;;;;;16.30;14.68;;;;;;;15.94;57.50;100901.09;4989968;28;20429;-69
2022/05/01 09:58:38;;;;;;;17.33;15.03;;;;;;;15.94;57.56;100892.88;4971999;28;20422;-69
2022/05/01 10:01:08;;;;;;;17.17;15.07;;;;;;;15.88;56.53;100903.00;4984692;28;20425;-69
2022/05/01 10:03:35;;;;;;;16.13;14.43;;;;;;;15.86;57.09;100896.97;5013133;28;20458;-69
2022/05/01 10:06:00;;;;;;;18.63;16.02;;;;;;;15.90;57.09;100894.53;5002667;28;21515;-69
2022/05/01 10:08:26;;;;;;;19.65;14.40;;;;;;;15.86;57.17;100887.97;5000144;28;20424;-70
2022/05/01 10:10:57;;;;;;;16.08;14.38;;;;;;;15.90;57.21;100891.81;4995651;28;20413;-70
2022/05/01 10:13:24;;;;;;;17.42;15.77;;;;;;;16.00;57.23;100897.31;4997322;28;20418;-70
2022/05/01 10:15:50;;;;;;;16.17;13.93;;;;;;;16.10;56.61;100891.84;4998056;28;20471;-70
2022/05/01 10:18:16;;;;;;;15.77;14.15;;;;;;;16.12;55.96;100886.09;4997043;28;20440;-70
2022/05/01 10:20:42;;;;;;;15.52;13.95;;;;;;;16.18;55.97;100888.56;4997026;28;20550;-71
2022/05/01 10:23:09;;;;;;;15.93;13.85;;;;;;;16.17;55.77;100889.66;4996015;28;20471;-71
2022/05/01 10:25:37;;;;;;;16.30;14.60;;;;;;;16.13;55.77;100888.56;4998795;28;21149;-71
2022/05/01 10:28:07;;;;;;;15.85;13.60;;;;;;;16.19;55.98;100875.72;4999390;28;20404;-71
2022/05/01 10:33:58;;;;;;;19.17;14.88;;;;;;;16.98;54.53;100870.53;4994887;28;20451;-71
2022/05/01 10:36:57;;;;;;;13.90;12.60;;;;;;;17.88;53.10;100872.09;4986792;28;20924;-70
2022/05/01 10:39:24;;;;;;;14.68;12.82;;;;;;;19.22;49.27;100875.09;4996056;28;20776;-70
2022/05/01 10:41:49;;;;;;;14.93;13.33;;;;;;;18.92;49.00;100875.44;4998138;28;20429;-70
2022/05/01 10:44:30;;;;;;;14.97;13.17;;;;;;;18.37;50.26;100866.56;4997632;28;20440;-71
2022/05/01 10:47:04;;;;;;;15.30;13.15;;;;;;;18.62;50.31;100865.56;5002200;28;20745;-71
2022/05/01 10:49:39;;;;;;;15.80;12.88;;;;;;;18.18;49.57;100868.34;4998863;28;21194;-70
2022/05/01 10:52:18;;;;;;;11.90;10.70;;;;;;;17.77;51.26;100858.75;4996152;28;20745;-71
2022/05/01 10:55:05;;;;;;;13.97;12.67;;;;;;;17.48;52.21;100862.16;5000084;28;20444;-69
2022/05/01 10:57:31;;;;;;;14.38;12.98;;;;;;;17.20;52.42;100853.75;4995616;28;20406;-71
2022/05/01 11:00:10;;;;;;;14.45;12.95;;;;;;;17.07;52.26;100849.69;5006329;28;20425;-72
2022/05/01 11:02:49;;;;;;;15.30;13.13;;;;;;;17.25;53.02;100848.25;4998568;28;20466;-71
2022/05/01 11:05:41;;;;;;;14.60;13.03;;;;;;;17.37;53.07;100843.28;4995083;28;20851;-71
2022/05/01 11:08:24;;;;;;;13.82;12.43;;;;;;;17.59;52.30;100850.06;4994221;28;20424;-70
2022/05/01 11:10:51;;;;;;;18.63;13.60;;;;;;;17.93;52.08;100841.91;4993463;28;20412;-71
2022/05/01 11:13:19;;;;;;;15.02;13.50;;;;;;;18.05;50.21;100838.81;4993586;28;20411;-71
2022/05/01 11:15:50;;;;;;;14.52;12.55;;;;;;;18.43;50.06;100843.47;4998258;28;20422;-72
2022/05/01 11:18:26;;;;;;;14.32;12.82;;;;;;;18.30;50.17;100838.63;4993997;28;20417;-72
2022/05/01 11:20:51;;;;;;;13.88;12.50;;;;;;;18.08;50.42;100839.06;4995024;28;20413;-71
2022/05/01 11:23:31;;;;;;;14.43;12.93;;;;;;;17.92;51.05;100837.53;4992762;28;21248;-70
2022/05/01 11:26:27;;;;;;;14.20;12.80;;;;;;;17.71;50.28;100832.47;4982117;28;20418;-71
2022/05/01 11:28:55;;;;;;;14.70;12.82;;;;;;;17.51;50.64;100836.91;4974433;28;22616;-70
2022/05/01 11:31:36;;;;;;;14.88;13.40;;;;;;;17.28;51.89;100836.75;4996344;28;20444;-70
2022/05/01 11:34:17;;;;;;;15.77;13.77;;;;;;;17.09;50.91;100834.59;4993552;28;20798;-72
2022/05/01 11:37:07;;;;;;;15.50;13.75;;;;;;;17.00;51.78;100829.97;4995910;28;20430;-72
2022/05/01 11:39:50;;;;;;;18.25;14.60;;;;;;;17.02;53.20;100831.38;4979439;28;20493;-72